createdAt,value
2018-09-26T00:01:01.244Z,1.87
2018-09-26T00:02:42.363Z,1.80
2018-09-26T00:04:21.194Z,2.10
2018-09-26T00:05:56.672Z,1.90
2018-09-26T00:07:32.235Z,1.90
2018-09-26T00:09:10.577Z,1.87
2018-09-26T00:10:46.233Z,2.00
2018-09-26T00:12:21.760Z,1.90
2018-09-26T00:13:57.277Z,2.00
2018-09-26T00:15:32.952Z,1.90
2018-09-26T00:17:08.597Z,2.47
2018-09-26T00:18:44.079Z,2.17
2018-09-26T00:20:20.633Z,1.90
2018-09-26T00:21:56.141Z,1.80
2018-09-26T00:23:31.743Z,1.87
2018-09-26T00:25:07.261Z,1.80
2018-09-26T00:26:42.782Z,1.80
2018-09-26T00:28:18.292Z,2.00
2018-09-26T00:29:53.922Z,2.10
2018-09-26T00:31:29.431Z,1.83
2018-09-26T00:33:05.261Z,1.93
2018-09-26T00:34:40.796Z,1.90
2018-09-26T00:36:16.387Z,2.10
2018-09-26T00:37:52.224Z,1.80
2018-09-26T00:39:27.745Z,1.80
2018-09-26T00:41:03.276Z,2.10
2018-09-26T00:42:38.796Z,1.80
2018-09-26T00:44:14.330Z,1.90
2018-09-26T00:45:49.890Z,1.70
2018-09-26T00:47:25.535Z,1.80
2018-09-26T00:49:01.039Z,1.80
2018-09-26T00:50:36.595Z,1.80
2018-09-26T00:52:12.126Z,2.10
2018-09-26T00:53:47.712Z,2.17
2018-09-26T00:55:23.212Z,1.67
2018-09-26T00:56:58.780Z,2.17
2018-09-26T00:58:34.257Z,1.77
2018-09-26T01:00:09.762Z,1.87
2018-09-26T01:01:45.325Z,2.00
2018-09-26T01:03:20.972Z,1.73
2018-09-26T01:04:56.448Z,1.83
2018-09-26T01:06:31.958Z,1.67
2018-09-26T01:08:07.476Z,1.60
2018-09-26T01:09:42.968Z,2.03
2018-09-26T01:11:18.564Z,1.67
2018-09-26T01:12:54.238Z,1.83
2018-09-26T01:14:29.850Z,1.73
2018-09-26T01:16:05.540Z,1.70
2018-09-26T01:17:40.996Z,1.90
2018-09-26T01:19:16.523Z,1.80
2018-09-26T01:20:52.076Z,1.93
2018-09-26T01:22:27.575Z,1.43
2018-09-26T01:24:03.178Z,1.70
2018-09-26T01:25:38.670Z,1.70
2018-09-26T01:27:14.229Z,1.77
2018-09-26T01:28:49.763Z,1.50
2018-09-26T01:30:25.249Z,1.63
2018-09-26T01:32:00.869Z,1.80
2018-09-26T01:33:36.369Z,1.80
2018-09-26T01:35:11.956Z,1.70
2018-09-26T01:36:47.462Z,1.77
2018-09-26T01:38:23.052Z,1.73
2018-09-26T01:39:58.882Z,1.80
2018-09-26T01:41:34.494Z,1.90
2018-09-26T01:43:09.985Z,1.90
2018-09-26T01:44:45.531Z,1.83
2018-09-26T01:46:20.980Z,1.40
2018-09-26T01:47:56.523Z,1.87
2018-09-26T01:49:32.096Z,1.80
2018-09-26T01:51:07.680Z,1.70
2018-09-26T01:52:43.208Z,1.70
2018-09-26T01:54:18.757Z,1.90
2018-09-26T01:55:54.328Z,1.80
2018-09-26T01:57:30.090Z,1.63
2018-09-26T01:59:05.612Z,1.73
2018-09-26T02:00:41.119Z,1.50
2018-09-26T02:02:16.622Z,1.90
2018-09-26T02:03:52.153Z,1.60
2018-09-26T02:05:27.634Z,1.63
2018-09-26T02:07:03.140Z,2.13
2018-09-26T02:08:38.651Z,1.80
2018-09-26T02:10:14.381Z,1.70
2018-09-26T02:11:49.912Z,1.80
2018-09-26T02:13:25.357Z,2.00
2018-09-26T02:15:00.861Z,1.93
2018-09-26T02:16:36.348Z,1.80
2018-09-26T02:18:11.889Z,1.90
2018-09-26T02:19:47.421Z,1.70
2018-09-26T02:21:22.917Z,1.70
2018-09-26T02:22:58.404Z,1.90
2018-09-26T02:24:33.921Z,1.93
2018-09-26T02:26:09.583Z,1.90
2018-09-26T02:27:45.251Z,1.70
2018-09-26T02:29:20.744Z,1.90
2018-09-26T02:30:56.308Z,1.80
2018-09-26T02:32:31.806Z,1.87
2018-09-26T02:34:07.286Z,1.90
2018-09-26T02:35:42.803Z,2.07
2018-09-26T02:37:18.275Z,2.07
2018-09-26T02:38:53.805Z,2.20
2018-09-26T02:40:29.287Z,2.20
2018-09-26T02:42:05.046Z,1.93
2018-09-26T02:43:40.548Z,2.17
2018-09-26T02:45:16.051Z,2.00
2018-09-26T02:46:51.536Z,2.30
2018-09-26T02:48:32.483Z,2.10
2018-09-26T02:50:07.966Z,2.07
2018-09-26T02:51:43.468Z,1.80
2018-09-26T02:53:18.989Z,2.00
2018-09-26T02:54:54.631Z,2.27
2018-09-26T02:56:30.158Z,2.47
2018-09-26T02:58:05.676Z,2.33
2018-09-26T02:59:41.171Z,2.17
2018-09-26T03:01:16.683Z,1.93
2018-09-26T03:02:52.194Z,1.80
2018-09-26T03:04:27.708Z,1.90
2018-09-26T03:06:03.267Z,2.00
2018-09-26T03:07:38.775Z,1.97
2018-09-26T03:09:14.337Z,1.80
2018-09-26T03:10:49.919Z,1.60
2018-09-26T03:12:25.458Z,1.60
2018-09-26T03:14:01.100Z,1.60
2018-09-26T03:15:36.649Z,1.73
2018-09-26T03:17:12.227Z,1.60
2018-09-26T03:18:47.806Z,1.73
2018-09-26T03:20:23.339Z,1.80
2018-09-26T03:21:58.813Z,1.60
2018-09-26T03:23:34.299Z,1.60
2018-09-26T03:25:09.967Z,1.40
2018-09-26T03:26:45.500Z,2.00
2018-09-26T03:28:20.989Z,1.70
2018-09-26T03:29:56.472Z,1.63
2018-09-26T03:31:32.085Z,1.87
2018-09-26T03:33:07.603Z,1.77
2018-09-26T03:34:43.191Z,1.67
2018-09-26T03:36:18.739Z,1.83
2018-09-26T03:37:54.277Z,1.60
2018-09-26T03:39:29.741Z,1.90
2018-09-26T03:41:05.271Z,1.50
2018-09-26T03:42:40.792Z,1.70
2018-09-26T03:44:16.429Z,1.80
2018-09-26T03:45:52.027Z,1.80
2018-09-26T03:47:27.561Z,1.80
2018-09-26T03:49:03.051Z,1.77
2018-09-26T03:50:38.593Z,1.63
2018-09-26T03:52:14.115Z,1.80
2018-09-26T03:53:49.674Z,1.60
2018-09-26T03:55:25.207Z,1.53
2018-09-26T03:57:00.945Z,1.80
2018-09-26T03:58:36.439Z,1.57
2018-09-26T04:00:11.981Z,1.50
2018-09-26T04:01:47.465Z,1.70
2018-09-26T04:03:29.673Z,1.60
2018-09-26T04:05:05.352Z,1.50
2018-09-26T04:06:41.172Z,1.43
2018-09-26T04:08:17.023Z,1.57
2018-09-26T04:09:52.611Z,1.30
2018-09-26T04:11:28.229Z,1.60
2018-09-26T04:13:03.815Z,1.30
2018-09-26T04:14:39.287Z,1.30
2018-09-26T04:16:14.824Z,1.67
2018-09-26T04:17:50.395Z,1.40
2018-09-26T04:19:26.046Z,1.40
2018-09-26T04:21:01.522Z,1.77
2018-09-26T04:22:37.012Z,1.90
2018-09-26T04:24:12.568Z,2.13
2018-09-26T04:25:48.110Z,1.80
2018-09-26T04:27:23.806Z,3.43
2018-09-26T04:28:59.263Z,6.17
2018-09-26T04:30:34.800Z,3.00
2018-09-26T04:32:10.335Z,2.10
2018-09-26T04:33:46.205Z,1.83
2018-09-26T04:35:21.519Z,2.30
2018-09-26T04:36:58.081Z,1.90
2018-09-26T04:38:33.697Z,2.00
2018-09-26T04:40:09.160Z,1.70
2018-09-26T04:41:44.681Z,1.97
2018-09-26T04:43:20.246Z,1.63
2018-09-26T04:44:56.005Z,1.97
2018-09-26T04:46:31.549Z,1.47
2018-09-26T04:48:08.052Z,1.67
2018-09-26T04:49:43.619Z,1.50
2018-09-26T04:51:19.167Z,1.30
2018-09-26T04:52:54.921Z,1.57
2018-09-26T04:54:30.695Z,1.50
2018-09-26T04:56:06.324Z,1.50
2018-09-26T04:57:41.921Z,1.50
2018-09-26T04:59:17.484Z,1.60
2018-09-26T05:00:53.188Z,1.60
2018-09-26T05:02:28.733Z,1.90
2018-09-26T05:04:04.196Z,2.70
2018-09-26T05:05:39.717Z,2.00
2018-09-26T05:07:15.286Z,2.03
2018-09-26T05:08:50.993Z,2.10
2018-09-26T05:10:26.512Z,2.10
2018-09-26T05:12:02.225Z,1.70
2018-09-26T05:13:38.066Z,1.60
2018-09-26T05:15:13.788Z,1.70
2018-09-26T05:16:49.335Z,1.70
2018-09-26T05:18:24.951Z,1.80
2018-09-26T05:20:00.484Z,1.80
2018-09-26T05:21:36.381Z,1.70
2018-09-26T05:23:11.958Z,1.80
2018-09-26T05:24:47.624Z,1.77
2018-09-26T05:26:23.100Z,1.27
2018-09-26T05:27:58.675Z,1.73
2018-09-26T05:29:34.270Z,1.80
2018-09-26T05:31:09.998Z,1.50
2018-09-26T05:32:45.803Z,2.00
2018-09-26T05:34:21.311Z,1.70
2018-09-26T05:35:57.673Z,1.80
2018-09-26T05:37:33.220Z,2.13
2018-09-26T05:39:10.165Z,2.00
2018-09-26T05:40:45.850Z,2.37
2018-09-26T05:42:21.405Z,2.00
2018-09-26T05:43:57.904Z,2.17
2018-09-26T05:45:33.456Z,2.57
2018-09-26T05:47:09.452Z,3.23
2018-09-26T05:48:45.421Z,5.57
2018-09-26T05:50:20.942Z,5.50
2018-09-26T05:51:56.529Z,3.67
2018-09-26T05:53:32.088Z,2.77
2018-09-26T05:55:07.745Z,3.40
2018-09-26T05:56:43.367Z,5.37
2018-09-26T05:58:18.903Z,3.57
2018-09-26T05:59:54.414Z,3.60
2018-09-26T06:01:29.964Z,3.00
2018-09-26T06:03:05.592Z,3.37
2018-09-26T06:04:41.161Z,2.60
2018-09-26T06:06:16.702Z,3.37
2018-09-26T06:07:52.351Z,2.70
2018-09-26T06:09:27.906Z,3.10
2018-09-26T06:11:03.417Z,3.30
2018-09-26T06:12:38.886Z,3.20
2018-09-26T06:14:14.602Z,2.67
2018-09-26T06:15:50.092Z,2.70
2018-09-26T06:17:25.558Z,2.97
2018-09-26T06:19:01.037Z,2.60
2018-09-26T06:20:36.558Z,2.70
2018-09-26T06:22:12.137Z,3.27
2018-09-26T06:23:47.668Z,2.77
2018-09-26T06:25:23.187Z,2.53
2018-09-26T06:26:58.746Z,3.10
2018-09-26T06:28:34.303Z,2.93
2018-09-26T06:30:10.047Z,3.20
2018-09-26T06:31:45.625Z,2.90
2018-09-26T06:33:21.144Z,4.03
2018-09-26T06:34:56.704Z,3.70
2018-09-26T06:36:32.178Z,3.80
2018-09-26T06:38:07.707Z,3.63
2018-09-26T06:39:43.211Z,4.17
2018-09-26T06:41:18.733Z,3.20
2018-09-26T06:42:54.432Z,2.90
2018-09-26T06:44:30.030Z,4.50
2018-09-26T06:46:05.627Z,3.40
2018-09-26T06:47:43.536Z,2.97
2018-09-26T06:49:19.102Z,3.27
2018-09-26T06:50:54.593Z,3.40
2018-09-26T06:52:30.083Z,3.20
2018-09-26T06:54:05.795Z,2.90
2018-09-26T06:55:41.410Z,3.00
2018-09-26T06:57:17.048Z,2.87
2018-09-26T06:58:52.560Z,2.50
2018-09-26T07:00:28.190Z,3.17
2018-09-26T07:02:03.815Z,2.90
2018-09-26T07:03:39.345Z,2.30
2018-09-26T07:05:14.897Z,2.90
2018-09-26T07:06:50.431Z,2.50
2018-09-26T07:08:26.053Z,2.60
2018-09-26T07:10:01.625Z,3.10
2018-09-26T07:11:37.275Z,2.13
2018-09-26T07:13:12.794Z,2.67
2018-09-26T07:14:48.375Z,2.97
2018-09-26T07:16:23.960Z,2.50
2018-09-26T07:17:59.520Z,2.50
2018-09-26T07:19:35.081Z,2.47
2018-09-26T07:21:10.669Z,2.60
2018-09-26T07:22:46.281Z,2.53
2018-09-26T07:24:21.881Z,2.33
2018-09-26T07:25:57.432Z,2.80
2018-09-26T07:27:33.003Z,2.80
2018-09-26T07:29:08.928Z,2.53
2018-09-26T07:30:44.477Z,2.37
2018-09-26T07:32:20.074Z,2.27
2018-09-26T07:33:55.606Z,2.97
2018-09-26T07:35:31.160Z,2.53
2018-09-26T07:37:07.047Z,2.57
2018-09-26T07:38:42.652Z,2.33
2018-09-26T07:40:18.228Z,2.50
2018-09-26T07:41:53.808Z,2.37
2018-09-26T07:43:29.348Z,2.20
2018-09-26T07:45:05.222Z,2.30
2018-09-26T07:46:40.795Z,2.20
2018-09-26T07:48:16.341Z,2.53
2018-09-26T07:49:51.961Z,2.80
2018-09-26T07:51:27.481Z,3.10
2018-09-26T07:53:03.015Z,2.37
2018-09-26T07:54:38.537Z,2.27
2018-09-26T07:56:14.246Z,2.20
2018-09-26T07:57:49.743Z,2.27
2018-09-26T07:59:25.391Z,2.30
2018-09-26T08:01:00.967Z,2.47
2018-09-26T08:02:36.519Z,2.13
2018-09-26T08:04:12.109Z,2.23
2018-09-26T08:05:47.750Z,2.20
2018-09-26T08:07:23.275Z,1.90
2018-09-26T08:08:58.820Z,2.40
2018-09-26T08:10:34.373Z,2.00
2018-09-26T08:12:10.067Z,1.83
2018-09-26T08:13:45.574Z,2.20
2018-09-26T08:15:21.199Z,2.00
2018-09-26T08:16:56.829Z,2.00
2018-09-26T08:18:32.576Z,1.87
2018-09-26T08:20:08.039Z,1.93
2018-09-26T08:21:43.666Z,2.10
2018-09-26T08:23:19.195Z,1.90
2018-09-26T08:24:54.904Z,1.90
2018-09-26T08:26:30.443Z,1.50
2018-09-26T08:28:06.019Z,1.90
2018-09-26T08:29:41.927Z,1.70
2018-09-26T08:31:17.506Z,1.80
2018-09-26T08:32:53.074Z,1.90
2018-09-26T08:34:28.657Z,1.40
2018-09-26T08:36:04.135Z,1.60
2018-09-26T08:37:39.647Z,1.80
2018-09-26T08:39:15.321Z,1.60
2018-09-26T08:40:50.911Z,1.67
2018-09-26T08:42:26.533Z,1.73
2018-09-26T08:44:02.146Z,1.60
2018-09-26T08:45:37.659Z,1.50
2018-09-26T08:47:13.321Z,1.80
2018-09-26T08:48:48.913Z,1.60
2018-09-26T08:50:24.393Z,1.50
2018-09-26T08:51:59.961Z,1.60
2018-09-26T08:53:35.533Z,1.93
2018-09-26T08:55:11.088Z,1.57
2018-09-26T08:56:46.593Z,1.53
2018-09-26T08:58:22.184Z,1.60
2018-09-26T08:59:57.843Z,1.57
2018-09-26T09:01:38.888Z,1.60
2018-09-26T09:03:14.520Z,1.67
2018-09-26T09:04:50.162Z,1.40
2018-09-26T09:06:25.729Z,1.67
2018-09-26T09:08:01.696Z,1.50
2018-09-26T09:09:37.335Z,1.67
2018-09-26T09:11:13.684Z,1.37
2018-09-26T09:12:49.192Z,1.47
2018-09-26T09:14:24.808Z,1.47
2018-09-26T09:16:00.279Z,1.50
2018-09-26T09:17:35.993Z,1.10
2018-09-26T09:19:11.514Z,1.57
2018-09-26T09:20:47.030Z,1.00
2018-09-26T09:22:22.559Z,1.50
2018-09-26T09:23:58.042Z,1.20
2018-09-26T09:25:33.503Z,1.53
2018-09-26T09:27:09.079Z,1.40
2018-09-26T09:28:44.529Z,1.50
2018-09-26T09:30:19.974Z,1.30
2018-09-26T09:31:55.466Z,1.40
2018-09-26T09:33:31.066Z,1.40
2018-09-26T09:35:06.662Z,1.50
2018-09-26T09:36:42.305Z,1.20
2018-09-26T09:38:18.350Z,1.20
2018-09-26T09:39:53.856Z,1.27
2018-09-26T09:41:29.389Z,1.27
2018-09-26T09:43:04.964Z,1.23
2018-09-26T09:44:40.773Z,1.40
2018-09-26T09:46:16.326Z,0.97
2018-09-26T09:47:51.864Z,1.10
2018-09-26T09:49:27.408Z,1.20
2018-09-26T09:51:02.969Z,1.20
2018-09-26T09:52:38.516Z,1.10
2018-09-26T09:54:14.129Z,1.07
2018-09-26T09:55:51.206Z,1.10
2018-09-26T09:57:26.806Z,1.30
2018-09-26T09:59:02.287Z,1.37
2018-09-26T10:00:43.286Z,1.50
2018-09-26T10:02:18.789Z,1.20
2018-09-26T10:03:54.437Z,1.13
2018-09-26T10:05:29.895Z,1.20
2018-09-26T10:07:05.403Z,1.23
2018-09-26T10:08:40.961Z,1.40
2018-09-26T10:10:16.422Z,0.90
2018-09-26T10:11:51.929Z,1.20
2018-09-26T10:13:27.461Z,1.10
2018-09-26T10:15:03.214Z,1.30
2018-09-26T10:16:38.731Z,1.20
2018-09-26T10:18:14.457Z,1.00
2018-09-26T10:19:49.956Z,1.00
2018-09-26T10:21:26.499Z,1.13
2018-09-26T10:23:02.021Z,1.20
2018-09-26T10:24:37.513Z,1.23
2018-09-26T10:26:13.116Z,1.03
2018-09-26T10:27:48.538Z,1.03
2018-09-26T10:29:24.035Z,1.13
2018-09-26T10:30:59.545Z,1.07
2018-09-26T10:32:35.190Z,1.10
2018-09-26T10:34:10.713Z,1.37
2018-09-26T10:35:46.252Z,1.00
2018-09-26T10:37:22.445Z,1.23
2018-09-26T10:38:58.362Z,1.03
2018-09-26T10:40:33.836Z,1.03
2018-09-26T10:42:09.312Z,1.13
2018-09-26T10:43:44.872Z,1.10
2018-09-26T10:45:20.367Z,1.37
2018-09-26T10:46:55.869Z,1.17
2018-09-26T10:48:31.433Z,1.00
2018-09-26T10:50:07.363Z,1.20
2018-09-26T10:51:42.958Z,1.27
2018-09-26T10:53:18.459Z,0.97
2018-09-26T10:54:53.999Z,0.90
2018-09-26T10:56:29.611Z,1.00
2018-09-26T10:58:05.100Z,1.23
2018-09-26T10:59:40.613Z,1.07
2018-09-26T11:01:16.294Z,0.90
2018-09-26T11:02:51.833Z,1.10
2018-09-26T11:04:27.374Z,1.00
2018-09-26T11:06:02.933Z,0.90
2018-09-26T11:07:38.423Z,1.10
2018-09-26T11:09:13.957Z,1.10
2018-09-26T11:10:49.468Z,1.13
2018-09-26T11:12:25.034Z,1.10
2018-09-26T11:14:00.546Z,1.10
2018-09-26T11:15:36.175Z,1.10
2018-09-26T11:17:11.873Z,0.97
2018-09-26T11:18:47.524Z,1.00
2018-09-26T11:20:23.161Z,0.90
2018-09-26T11:21:58.755Z,1.00
2018-09-26T11:23:34.353Z,1.10
2018-09-26T11:25:09.968Z,1.30
2018-09-26T11:26:45.561Z,1.20
2018-09-26T11:28:21.208Z,1.10
2018-09-26T11:29:56.712Z,0.93
2018-09-26T11:31:32.316Z,1.33
2018-09-26T11:33:07.868Z,1.00
2018-09-26T11:34:43.458Z,0.90
2018-09-26T11:36:19.036Z,1.10
2018-09-26T11:37:54.657Z,0.80
2018-09-26T11:39:30.326Z,1.07
2018-09-26T11:41:05.918Z,0.90
2018-09-26T11:42:41.498Z,1.10
2018-09-26T11:44:17.059Z,0.97
2018-09-26T11:45:52.589Z,1.03
2018-09-26T11:47:28.149Z,1.17
2018-09-26T11:49:03.744Z,0.97
2018-09-26T11:50:39.387Z,1.10
2018-09-26T11:52:15.055Z,0.90
2018-09-26T11:53:50.543Z,1.30
2018-09-26T11:55:26.733Z,1.03
2018-09-26T11:57:02.310Z,1.20
2018-09-26T11:58:37.875Z,1.00
2018-09-26T12:00:13.389Z,1.13
2018-09-26T12:01:48.891Z,1.10
2018-09-26T12:03:24.494Z,1.10
2018-09-26T12:05:00.013Z,0.93
2018-09-26T12:06:35.668Z,1.20
2018-09-26T12:08:11.249Z,1.27
2018-09-26T12:09:46.915Z,1.10
2018-09-26T12:11:22.507Z,1.10
2018-09-26T12:12:58.055Z,1.17
2018-09-26T12:14:33.593Z,1.20
2018-09-26T12:16:09.295Z,1.00
2018-09-26T12:17:44.865Z,0.83
2018-09-26T12:19:20.515Z,1.17
2018-09-26T12:20:56.115Z,0.80
2018-09-26T12:22:31.808Z,0.90
2018-09-26T12:24:07.599Z,1.10
2018-09-26T12:25:43.149Z,1.30
2018-09-26T12:27:18.712Z,1.23
2018-09-26T12:28:54.258Z,0.90
2018-09-26T12:30:29.815Z,0.93
2018-09-26T12:32:05.367Z,1.17
2018-09-26T12:33:40.986Z,1.10
2018-09-26T12:35:16.520Z,1.07
2018-09-26T12:36:52.095Z,1.00
2018-09-26T12:38:27.659Z,1.10
2018-09-26T12:40:03.145Z,1.00
2018-09-26T12:41:38.758Z,1.10
2018-09-26T12:43:14.529Z,1.00
2018-09-26T12:44:50.093Z,1.00
2018-09-26T12:46:25.732Z,1.00
2018-09-26T12:48:01.303Z,1.10
2018-09-26T12:49:37.288Z,1.20
2018-09-26T12:51:12.853Z,1.10
2018-09-26T12:52:48.381Z,0.80
2018-09-26T12:54:24.139Z,1.00
2018-09-26T12:56:00.849Z,1.00
2018-09-26T12:57:36.530Z,0.90
2018-09-26T12:59:12.008Z,1.00
2018-09-26T13:00:47.507Z,1.30
2018-09-26T13:02:23.010Z,0.90
2018-09-26T13:03:58.467Z,0.90
2018-09-26T13:05:34.052Z,1.00
2018-09-26T13:07:09.629Z,0.93
2018-09-26T13:08:45.063Z,1.10
2018-09-26T13:10:20.693Z,1.10
2018-09-26T13:11:56.745Z,1.17
2018-09-26T13:13:32.197Z,0.90
2018-09-26T13:15:07.687Z,1.17
2018-09-26T13:16:43.204Z,1.10
2018-09-26T13:18:19.044Z,1.00
2018-09-26T13:19:54.475Z,1.17
2018-09-26T13:21:29.939Z,1.10
2018-09-26T13:23:05.495Z,1.20
2018-09-26T13:24:41.034Z,1.20
2018-09-26T13:26:16.518Z,1.00
2018-09-26T13:27:51.978Z,1.10
2018-09-26T13:29:27.534Z,1.20
2018-09-26T13:31:03.118Z,1.07
2018-09-26T13:32:38.632Z,1.00
2018-09-26T13:34:14.316Z,0.50
2018-09-26T13:35:49.811Z,0.90
2018-09-26T13:37:25.332Z,0.97
2018-09-26T13:39:00.941Z,1.20
2018-09-26T13:40:36.431Z,0.93
2018-09-26T13:42:12.083Z,0.83
2018-09-26T13:43:47.593Z,1.20
2018-09-26T13:45:23.221Z,0.83
2018-09-26T13:46:58.745Z,1.03
2018-09-26T13:48:34.354Z,1.00
2018-09-26T13:50:09.919Z,0.97
2018-09-26T13:51:45.598Z,1.30
2018-09-26T13:53:21.106Z,1.10
2018-09-26T13:54:56.683Z,1.10
2018-09-26T13:56:32.298Z,1.10
2018-09-26T13:58:07.825Z,0.80
2018-09-26T13:59:43.326Z,0.97
2018-09-26T14:01:18.875Z,1.00
2018-09-26T14:02:54.406Z,0.90
2018-09-26T14:04:29.914Z,0.80
2018-09-26T14:06:05.419Z,1.00
2018-09-26T14:07:40.903Z,1.03
2018-09-26T14:09:16.526Z,1.40
2018-09-26T14:10:52.156Z,1.20
2018-09-26T14:12:27.641Z,1.07
2018-09-26T14:14:03.131Z,1.00
2018-09-26T14:15:38.633Z,0.63
2018-09-26T14:17:14.237Z,1.17
2018-09-26T14:18:49.752Z,1.03
2018-09-26T14:20:42.255Z,0.90
2018-09-26T14:22:18.007Z,1.17
2018-09-26T14:23:53.725Z,1.30
2018-09-26T14:25:29.505Z,1.10
2018-09-26T14:27:05.292Z,1.03
2018-09-26T14:28:41.113Z,1.00
2018-09-26T14:30:16.991Z,1.20
2018-09-26T14:31:52.768Z,0.90
2018-09-26T14:33:28.736Z,0.80
2018-09-26T14:35:19.056Z,0.90
2018-09-26T14:36:54.834Z,1.20
2018-09-26T14:38:30.578Z,1.00
2018-09-26T14:40:07.895Z,1.50
2018-09-26T14:41:43.680Z,1.40
2018-09-26T14:43:19.590Z,1.33
2018-09-26T14:44:55.376Z,1.47
2018-09-26T14:46:31.155Z,1.17
2018-09-26T14:48:06.909Z,1.00
2018-09-26T14:49:42.729Z,1.20
2018-09-26T14:51:19.459Z,1.00
2018-09-26T14:52:55.259Z,1.30
2018-09-26T14:54:30.962Z,1.23
2018-09-26T14:56:06.774Z,1.30
2018-09-26T14:57:42.470Z,2.20
2018-09-26T14:59:18.216Z,2.07
2018-09-26T15:00:55.559Z,1.00
2018-09-26T15:02:31.380Z,1.00
2018-09-26T15:04:07.367Z,1.17
2018-09-26T15:05:43.145Z,1.20
2018-09-26T15:07:18.975Z,1.00
2018-09-26T15:08:54.684Z,1.73
2018-09-26T15:10:30.467Z,2.00
2018-09-26T15:12:07.393Z,1.60
2018-09-26T15:13:43.077Z,1.20
2018-09-26T15:15:18.855Z,1.07
2018-09-26T15:16:54.614Z,1.60
2018-09-26T15:18:30.363Z,1.20
2018-09-26T15:20:06.600Z,1.50
2018-09-26T15:21:42.338Z,1.10
2018-09-26T15:23:18.175Z,1.30
2018-09-26T15:24:53.944Z,1.40
2018-09-26T15:26:29.692Z,1.50
2018-09-26T15:28:05.529Z,1.40
2018-09-26T15:29:41.247Z,1.20
2018-09-26T15:31:17.622Z,1.60
2018-09-26T15:32:53.428Z,1.70
2018-09-26T15:34:29.165Z,1.00
2018-09-26T15:36:05.683Z,1.23
2018-09-26T15:37:41.449Z,1.00
2018-09-26T15:39:17.193Z,1.20
2018-09-26T15:40:52.994Z,1.30
2018-09-26T15:42:28.758Z,1.03
2018-09-26T15:44:04.645Z,1.17
2018-09-26T15:45:40.393Z,2.33
2018-09-26T15:47:16.145Z,2.33
2018-09-26T15:48:51.913Z,2.70
2018-09-26T15:50:27.670Z,3.17
2018-09-26T15:52:03.425Z,2.60
2018-09-26T15:53:39.250Z,2.73
2018-09-26T15:55:15.032Z,2.70
2018-09-26T15:56:51.057Z,1.90
2018-09-26T15:58:26.853Z,1.90
2018-09-26T16:00:02.682Z,1.87
2018-09-26T16:01:38.497Z,1.47
2018-09-26T16:03:14.194Z,1.77
2018-09-26T16:04:49.752Z,1.63
2018-09-26T16:06:25.409Z,2.00
2018-09-26T16:08:00.911Z,1.70
2018-09-26T16:09:36.402Z,1.70
2018-09-26T16:11:12.333Z,1.50
2018-09-26T16:12:47.876Z,1.80
2018-09-26T16:14:23.411Z,1.20
2018-09-26T16:15:59.068Z,1.43
2018-09-26T16:17:34.646Z,1.67
2018-09-26T16:19:10.263Z,1.53
2018-09-26T16:20:46.101Z,1.47
2018-09-26T16:22:21.766Z,1.37
2018-09-26T16:23:57.256Z,1.50
2018-09-26T16:25:32.909Z,1.37
2018-09-26T16:27:08.389Z,1.30
2018-09-26T16:28:43.916Z,1.33
2018-09-26T16:30:19.485Z,0.80
2018-09-26T16:31:55.021Z,1.43
2018-09-26T16:33:30.574Z,1.30
2018-09-26T16:35:07.432Z,1.30
2018-09-26T16:36:42.984Z,1.30
2018-09-26T16:38:18.520Z,1.40
2018-09-26T16:39:54.048Z,1.23
2018-09-26T16:41:29.605Z,1.23
2018-09-26T16:43:05.178Z,1.43
2018-09-26T16:44:40.695Z,1.00
2018-09-26T16:46:16.267Z,1.33
2018-09-26T16:47:51.869Z,1.40
2018-09-26T16:49:27.403Z,1.23
2018-09-26T16:51:02.932Z,1.40
2018-09-26T16:52:38.432Z,1.30
2018-09-26T16:54:14.091Z,1.40
2018-09-26T16:55:49.729Z,1.60
2018-09-26T16:57:25.316Z,1.70
2018-09-26T16:59:00.984Z,1.57
2018-09-26T17:00:36.563Z,1.40
2018-09-26T17:02:12.148Z,1.23
2018-09-26T17:03:47.777Z,1.20
2018-09-26T17:05:23.543Z,1.35
2018-09-26T17:06:59.117Z,1.50
2018-09-26T17:08:34.680Z,1.50
2018-09-26T17:10:10.169Z,1.50
2018-09-26T17:11:45.996Z,1.50
2018-09-26T17:13:22.062Z,1.50
2018-09-26T17:14:57.611Z,1.80
2018-09-26T17:16:33.221Z,1.70
2018-09-26T17:18:08.934Z,1.93
2018-09-26T17:19:44.546Z,1.70
2018-09-26T17:21:20.374Z,1.50
2018-09-26T17:22:56.196Z,1.50
2018-09-26T17:24:31.771Z,1.40
2018-09-26T17:26:07.364Z,1.80
2018-09-26T17:27:42.920Z,1.80
2018-09-26T17:29:18.587Z,2.50
2018-09-26T17:30:54.353Z,2.50
2018-09-26T17:32:30.392Z,3.13
2018-09-26T17:34:06.137Z,3.00
2018-09-26T17:35:42.104Z,3.17
2018-09-26T17:37:17.682Z,3.33
2018-09-26T17:38:53.238Z,2.77
2018-09-26T17:40:28.981Z,2.20
2018-09-26T17:42:04.651Z,2.37
2018-09-26T17:43:40.111Z,3.10
2018-09-26T17:45:15.738Z,2.03
2018-09-26T17:46:51.619Z,2.20
2018-09-26T17:48:27.305Z,2.20
2018-09-26T17:50:02.818Z,2.40
2018-09-26T17:51:38.372Z,2.40
2018-09-26T17:53:17.421Z,2.40
2018-09-26T17:54:52.928Z,2.20
2018-09-26T17:56:28.950Z,2.23
2018-09-26T17:58:04.517Z,2.40
2018-09-26T17:59:40.116Z,2.50
2018-09-26T18:01:15.689Z,3.00
2018-09-26T18:02:51.241Z,3.50
2018-09-26T18:04:26.911Z,2.90
2018-09-26T18:06:02.512Z,4.83
2018-09-26T18:07:38.053Z,3.03
2018-09-26T18:09:13.942Z,3.33
2018-09-26T18:10:49.480Z,6.73
2018-09-26T18:12:25.076Z,2.63
2018-09-26T18:14:00.616Z,2.30
2018-09-26T18:15:36.197Z,1.63
2018-09-26T18:17:11.697Z,1.63
2018-09-26T18:18:47.213Z,1.87
2018-09-26T18:20:22.765Z,1.80
2018-09-26T18:21:58.445Z,1.60
2018-09-26T18:23:34.019Z,1.80
2018-09-26T18:25:09.860Z,2.00
2018-09-26T18:26:45.439Z,1.90
2018-09-26T18:28:21.317Z,1.60
2018-09-26T18:29:57.031Z,2.03
2018-09-26T18:31:32.569Z,2.40
2018-09-26T18:33:08.112Z,2.97
2018-09-26T18:34:43.730Z,2.67
2018-09-26T18:36:19.305Z,2.50
2018-09-26T18:37:54.945Z,2.20
2018-09-26T18:39:30.754Z,2.20
2018-09-26T18:41:06.219Z,2.70
2018-09-26T18:42:41.777Z,2.73
2018-09-26T18:44:17.359Z,2.30
2018-09-26T18:45:52.941Z,2.13
2018-09-26T18:47:28.477Z,2.30
2018-09-26T18:49:04.040Z,1.77
2018-09-26T18:50:39.637Z,2.37
2018-09-26T18:52:15.403Z,1.73
2018-09-26T18:53:51.284Z,1.70
2018-09-26T18:55:26.949Z,2.00
2018-09-26T18:57:02.709Z,2.53
2018-09-26T18:58:38.179Z,2.50
2018-09-26T19:00:16.903Z,2.20
2018-09-26T19:01:52.432Z,2.30
2018-09-26T19:03:27.965Z,1.97
2018-09-26T19:05:03.750Z,2.00
2018-09-26T19:06:39.045Z,1.80
2018-09-26T19:08:14.615Z,1.97
2018-09-26T19:09:50.189Z,1.80
2018-09-26T19:11:25.976Z,2.00
2018-09-26T19:13:01.550Z,1.93
2018-09-26T19:14:37.111Z,2.00
2018-09-26T19:16:12.688Z,1.87
2018-09-26T19:17:48.232Z,2.00
2018-09-26T19:19:23.885Z,2.00
2018-09-26T19:20:59.572Z,2.20
2018-09-26T19:22:35.157Z,1.90
2018-09-26T19:24:10.696Z,1.90
2018-09-26T19:25:47.942Z,1.97
2018-09-26T19:27:23.569Z,2.00
2018-09-26T19:28:59.159Z,1.73
2018-09-26T19:30:34.714Z,1.77
2018-09-26T19:32:10.268Z,2.43
2018-09-26T19:33:45.898Z,2.10
2018-09-26T19:35:21.554Z,1.80
2018-09-26T19:36:57.101Z,2.07
2018-09-26T19:38:32.690Z,1.70
2018-09-26T19:40:08.487Z,1.80
2018-09-26T19:41:44.598Z,2.00
2018-09-26T19:43:20.461Z,2.03
2018-09-26T19:44:56.025Z,2.17
2018-09-26T19:46:31.738Z,1.77
2018-09-26T19:48:07.313Z,1.70
2018-09-26T19:49:43.024Z,2.10
2018-09-26T19:51:18.707Z,1.80
2018-09-26T19:52:54.416Z,1.80
2018-09-26T19:54:30.118Z,1.90
2018-09-26T19:56:05.882Z,2.17
2018-09-26T19:57:41.544Z,1.70
2018-09-26T19:59:17.301Z,2.13
2018-09-26T20:00:52.973Z,2.13
2018-09-26T20:02:28.556Z,2.00
2018-09-26T20:04:04.876Z,1.80
2018-09-26T20:05:40.990Z,2.00
2018-09-26T20:07:16.665Z,2.00
2018-09-26T20:08:52.893Z,1.70
2018-09-26T20:10:28.676Z,1.80
2018-09-26T20:12:04.297Z,1.70
2018-09-26T20:13:40.022Z,1.80
2018-09-26T20:15:15.942Z,2.10
2018-09-26T20:16:51.529Z,1.80
2018-09-26T20:18:27.216Z,1.80
2018-09-26T20:20:02.902Z,1.90
2018-09-26T20:21:38.678Z,1.80
2018-09-26T20:23:14.430Z,1.80
2018-09-26T20:24:49.971Z,2.10
2018-09-26T20:26:25.739Z,2.00
2018-09-26T20:28:01.290Z,1.80
2018-09-26T20:29:37.256Z,1.70
2018-09-26T20:31:12.891Z,1.67
2018-09-26T20:32:49.051Z,1.63
2018-09-26T20:34:24.887Z,1.73
2018-09-26T20:36:00.674Z,1.70
2018-09-26T20:37:36.327Z,1.60
2018-09-26T20:39:12.739Z,2.20
2018-09-26T20:40:48.425Z,1.83
2018-09-26T20:42:24.343Z,1.90
2018-09-26T20:44:00.055Z,1.63
2018-09-26T20:45:35.819Z,1.87
2018-09-26T20:47:11.458Z,2.00
2018-09-26T20:48:47.116Z,1.70
2018-09-26T20:50:22.843Z,1.70
2018-09-26T20:51:58.514Z,1.83
2018-09-26T20:53:34.270Z,1.80
2018-09-26T20:55:09.864Z,1.73
2018-09-26T20:56:45.801Z,1.67
2018-09-26T20:58:21.408Z,2.00
2018-09-26T20:59:57.131Z,1.77
2018-09-26T21:01:32.656Z,1.70
2018-09-26T21:03:08.239Z,1.87
2018-09-26T21:04:43.821Z,1.67
2018-09-26T21:06:19.427Z,1.80
2018-09-26T21:07:55.028Z,2.13
2018-09-26T21:09:30.586Z,1.60
2018-09-26T21:11:06.235Z,1.60
2018-09-26T21:12:41.837Z,1.97
2018-09-26T21:14:17.361Z,1.70